createdAt,value
2023-01-20T00:01:26.801Z,30.87
2023-01-20T00:03:55.169Z,31.47
2023-01-20T00:06:23.729Z,33.43
2023-01-20T00:08:54.996Z,33.00
2023-01-20T00:11:22.412Z,33.97
2023-01-20T00:13:52.891Z,33.83
2023-01-20T00:16:20.243Z,32.20
2023-01-20T00:18:47.063Z,32.83
2023-01-20T00:21:16.830Z,31.90
2023-01-20T00:23:44.838Z,32.47
2023-01-20T00:26:17.573Z,34.30
2023-01-20T00:28:45.630Z,34.87
2023-01-20T00:31:17.788Z,33.97
2023-01-20T00:33:46.125Z,34.20
2023-01-20T00:36:14.778Z,34.60
2023-01-20T00:38:41.677Z,37.33
2023-01-20T00:41:09.371Z,35.77
2023-01-20T00:43:36.642Z,39.50
2023-01-20T00:46:04.938Z,35.10
2023-01-20T00:48:32.087Z,36.73
2023-01-20T00:50:59.449Z,34.73
2023-01-20T00:53:26.557Z,34.03
2023-01-20T00:55:53.610Z,34.27
2023-01-20T00:58:20.576Z,29.63
2023-01-20T01:00:49.336Z,27.97
2023-01-20T01:03:16.600Z,28.43
2023-01-20T01:05:44.647Z,30.87
2023-01-20T01:08:11.830Z,30.00
2023-01-20T01:10:39.295Z,31.00
2023-01-20T01:13:06.941Z,31.07
2023-01-20T01:15:34.604Z,28.33
2023-01-20T01:18:01.563Z,29.73
2023-01-20T01:20:29.325Z,29.33
2023-01-20T01:22:56.117Z,29.83
2023-01-20T01:25:23.399Z,29.33
2023-01-20T01:27:50.447Z,28.10
2023-01-20T01:30:17.635Z,28.73
2023-01-20T01:32:44.445Z,29.43
2023-01-20T01:35:11.841Z,29.33
2023-01-20T01:37:38.900Z,30.43
2023-01-20T01:40:06.669Z,31.23
2023-01-20T01:42:33.490Z,30.53
2023-01-20T01:45:23.587Z,34.73
2023-01-20T01:48:04.921Z,35.20
2023-01-20T01:50:38.145Z,35.83
2023-01-20T01:53:07.280Z,34.70
2023-01-20T01:55:39.493Z,35.83
2023-01-20T01:58:09.275Z,35.63
2023-01-20T02:00:38.503Z,35.80
2023-01-20T02:03:06.527Z,33.43
2023-01-20T02:05:35.282Z,32.57
2023-01-20T02:08:03.247Z,32.37
2023-01-20T02:10:31.544Z,34.50
2023-01-20T02:13:00.293Z,33.27
2023-01-20T02:15:34.472Z,32.73
2023-01-20T02:18:18.351Z,31.30
2023-01-20T02:21:09.862Z,30.93
2023-01-20T02:24:18.173Z,29.47
2023-01-20T02:27:19.683Z,29.47
2023-01-20T02:29:58.295Z,29.67
2023-01-20T02:32:48.073Z,29.13
2023-01-20T02:35:26.432Z,28.07
2023-01-20T02:38:13.696Z,31.17
2023-01-20T02:41:11.810Z,31.40
2023-01-20T02:43:58.582Z,31.27
2023-01-20T02:46:33.994Z,30.83
2023-01-20T02:49:19.696Z,31.20
2023-01-20T02:52:03.201Z,33.00
2023-01-20T02:54:34.569Z,30.87
2023-01-20T02:57:05.406Z,28.93
2023-01-20T02:59:38.958Z,30.20
2023-01-20T03:02:13.753Z,28.83
2023-01-20T03:05:06.548Z,29.50
2023-01-20T03:07:36.396Z,29.13
2023-01-20T03:10:08.565Z,30.57
2023-01-20T03:12:54.099Z,28.07
2023-01-20T03:15:24.919Z,27.37
2023-01-20T03:17:52.674Z,26.83
2023-01-20T03:20:19.909Z,28.40
2023-01-20T03:22:46.823Z,25.93
2023-01-20T03:25:15.127Z,28.70
2023-01-20T03:27:42.859Z,29.30
2023-01-20T03:30:14.901Z,28.00
2023-01-20T03:32:44.575Z,29.67
2023-01-20T03:35:16.158Z,28.40
2023-01-20T03:37:44.378Z,28.30
2023-01-20T03:40:12.879Z,29.63
2023-01-20T03:42:57.695Z,28.43
2023-01-20T03:45:37.410Z,30.33
2023-01-20T03:48:17.692Z,30.13
2023-01-20T03:50:57.378Z,32.10
2023-01-20T03:53:48.082Z,31.57
2023-01-20T03:56:24.404Z,30.67
2023-01-20T03:58:54.018Z,33.60
2023-01-20T04:01:25.052Z,35.17
2023-01-20T04:03:53.896Z,37.07
2023-01-20T04:06:25.706Z,37.43
2023-01-20T04:09:00.454Z,36.17
2023-01-20T04:11:27.943Z,34.70
2023-01-20T04:13:55.154Z,33.23
2023-01-20T04:16:22.918Z,33.67
2023-01-20T04:18:51.704Z,33.20
2023-01-20T04:21:24.599Z,38.57
2023-01-20T04:24:24.070Z,35.30
2023-01-20T04:26:51.253Z,35.87
2023-01-20T04:29:18.062Z,36.87
2023-01-20T04:31:45.232Z,34.73
2023-01-20T04:34:15.861Z,34.17
2023-01-20T04:36:43.239Z,32.67
2023-01-20T04:39:10.112Z,33.60
2023-01-20T04:41:37.272Z,34.93
2023-01-20T04:44:03.987Z,33.00
2023-01-20T04:46:31.115Z,34.13
2023-01-20T04:48:57.895Z,34.37
2023-01-20T04:51:25.049Z,32.23
2023-01-20T04:53:56.655Z,32.27
2023-01-20T04:56:23.677Z,33.10
2023-01-20T04:58:50.466Z,38.57
2023-01-20T05:01:17.735Z,36.07
2023-01-20T05:03:44.487Z,38.00
2023-01-20T05:06:11.828Z,37.33
2023-01-20T05:08:39.038Z,36.60
2023-01-20T05:11:06.277Z,38.37
2023-01-20T05:13:35.587Z,36.00
2023-01-20T05:16:03.172Z,38.33
2023-01-20T05:18:30.146Z,40.73
2023-01-20T05:20:57.188Z,39.27
2023-01-20T05:23:23.954Z,36.33
2023-01-20T05:25:51.818Z,39.13
2023-01-20T05:28:18.932Z,37.93
2023-01-20T05:30:46.791Z,37.07
2023-01-20T05:33:14.058Z,36.87
2023-01-20T05:35:41.045Z,33.60
2023-01-20T05:38:07.852Z,33.67
2023-01-20T05:40:34.975Z,33.83
2023-01-20T05:43:02.903Z,36.63
2023-01-20T05:45:31.537Z,35.53
2023-01-20T05:47:59.709Z,35.23
2023-01-20T05:50:28.006Z,33.80
2023-01-20T05:52:55.169Z,35.27
2023-01-20T05:55:22.279Z,33.80
2023-01-20T05:57:49.043Z,34.60
2023-01-20T06:00:18.803Z,34.47
2023-01-20T06:02:45.933Z,34.37
2023-01-20T06:05:14.057Z,33.27
2023-01-20T06:07:41.023Z,32.47
2023-01-20T06:10:08.888Z,34.97
2023-01-20T06:12:36.027Z,34.80
2023-01-20T06:15:03.452Z,36.33
2023-01-20T06:17:30.399Z,35.53
2023-01-20T06:19:57.642Z,35.73
2023-01-20T06:22:24.488Z,34.80
2023-01-20T06:24:52.173Z,35.37
2023-01-20T06:27:19.696Z,34.30
2023-01-20T06:29:46.797Z,33.20
2023-01-20T06:32:13.579Z,36.47
2023-01-20T06:34:40.551Z,34.43
2023-01-20T06:37:07.332Z,35.63
2023-01-20T06:39:34.435Z,34.60
2023-01-20T06:42:01.181Z,33.73
2023-01-20T06:44:28.330Z,35.77
2023-01-20T06:46:57.358Z,34.50
2023-01-20T06:49:24.416Z,33.77
2023-01-20T06:51:51.465Z,36.47
2023-01-20T06:54:18.542Z,34.97
2023-01-20T06:56:45.897Z,33.73
2023-01-20T06:59:13.427Z,32.93
2023-01-20T07:01:40.830Z,32.43
2023-01-20T07:04:08.390Z,33.87
2023-01-20T07:06:39.888Z,32.97
2023-01-20T07:09:11.866Z,31.87
2023-01-20T07:11:39.499Z,33.13
2023-01-20T07:14:06.965Z,35.57
2023-01-20T07:16:34.190Z,32.23
2023-01-20T07:19:01.588Z,33.60
2023-01-20T07:21:28.460Z,33.07
2023-01-20T07:23:55.513Z,34.33
2023-01-20T07:26:26.356Z,32.53
2023-01-20T07:28:53.758Z,32.97
2023-01-20T07:31:26.545Z,34.20
2023-01-20T07:33:57.163Z,32.53
2023-01-20T07:36:24.475Z,31.77
2023-01-20T07:38:52.512Z,32.73
2023-01-20T07:41:20.584Z,30.93
2023-01-20T07:43:49.658Z,33.73
2023-01-20T07:46:17.265Z,32.57
2023-01-20T07:48:44.450Z,33.30
2023-01-20T07:51:13.130Z,32.80
2023-01-20T07:53:42.231Z,33.83
2023-01-20T07:56:21.916Z,34.57
2023-01-20T07:58:50.738Z,31.97
2023-01-20T08:01:35.746Z,34.20
2023-01-20T08:04:02.987Z,34.47
2023-01-20T08:06:30.373Z,35.97
2023-01-20T08:09:01.323Z,34.27
2023-01-20T08:11:28.827Z,36.27
2023-01-20T08:13:55.908Z,34.23
2023-01-20T08:16:22.832Z,35.50
2023-01-20T08:18:52.841Z,36.53
2023-01-20T08:21:26.152Z,34.90
2023-01-20T08:23:56.399Z,35.13
2023-01-20T08:26:27.830Z,34.77
2023-01-20T08:28:56.003Z,34.93
2023-01-20T08:31:24.310Z,35.60
2023-01-20T08:33:56.018Z,36.00
2023-01-20T08:36:29.673Z,30.63
2023-01-20T08:38:59.065Z,29.23
2023-01-20T08:41:29.530Z,31.10
2023-01-20T08:43:58.958Z,33.40
2023-01-20T08:46:25.862Z,36.83
2023-01-20T08:48:53.455Z,37.20
2023-01-20T08:51:31.517Z,34.83
2023-01-20T08:53:59.681Z,35.97
2023-01-20T08:56:27.220Z,36.50
2023-01-20T08:58:55.002Z,34.80
2023-01-20T09:01:26.017Z,39.63
2023-01-20T09:04:04.965Z,41.57
2023-01-20T09:06:46.802Z,36.30
2023-01-20T09:09:15.047Z,36.47
2023-01-20T09:11:44.819Z,37.83
2023-01-20T09:14:12.084Z,34.40
2023-01-20T09:16:38.782Z,31.53
2023-01-20T09:19:05.869Z,31.93
2023-01-20T09:21:32.630Z,31.73
2023-01-20T09:24:00.191Z,32.73
2023-01-20T09:26:35.670Z,32.80
2023-01-20T09:29:09.617Z,32.70
2023-01-20T09:31:38.829Z,33.07
2023-01-20T09:34:06.015Z,32.83
2023-01-20T09:36:32.848Z,32.13
2023-01-20T09:39:18.604Z,31.93
2023-01-20T09:42:07.534Z,32.47
2023-01-20T09:44:49.333Z,32.80
2023-01-20T09:47:25.901Z,32.73
2023-01-20T09:50:34.728Z,33.27
2023-01-20T09:53:20.572Z,33.13
2023-01-20T09:56:00.018Z,34.63
2023-01-20T09:58:40.845Z,36.10
2023-01-20T10:01:24.527Z,33.23
2023-01-20T10:04:15.502Z,32.47
2023-01-20T10:06:52.712Z,34.13
2023-01-20T10:09:26.621Z,37.10
2023-01-20T10:12:06.069Z,35.80
2023-01-20T10:14:38.707Z,40.33
2023-01-20T10:17:34.257Z,40.90
2023-01-20T10:20:19.996Z,35.50
2023-01-20T10:22:53.405Z,36.00
2023-01-20T10:25:28.359Z,38.47
2023-01-20T10:28:17.305Z,37.90
2023-01-20T10:30:47.001Z,38.83
2023-01-20T10:33:23.401Z,37.03
2023-01-20T10:35:54.005Z,34.70
2023-01-20T10:38:38.476Z,31.77
2023-01-20T10:41:37.328Z,32.73
2023-01-20T10:44:11.385Z,31.50
2023-01-20T10:47:02.136Z,33.50
2023-01-20T10:49:55.201Z,33.17
2023-01-20T10:52:43.592Z,32.40
2023-01-20T10:55:41.588Z,29.00
2023-01-20T10:58:18.234Z,30.53
2023-01-20T11:00:45.859Z,31.23
2023-01-20T11:03:15.894Z,26.90
2023-01-20T11:05:43.188Z,29.93
2023-01-20T11:08:14.707Z,31.73
2023-01-20T11:10:41.914Z,38.50
2023-01-20T11:13:10.567Z,34.63
2023-01-20T11:15:44.214Z,30.93
2023-01-20T11:18:16.626Z,31.53
2023-01-20T11:20:46.651Z,29.23
2023-01-20T11:23:21.259Z,26.57
2023-01-20T11:25:57.574Z,27.50
2023-01-20T11:28:25.594Z,26.90
2023-01-20T11:30:54.908Z,28.23
2023-01-20T11:33:27.096Z,27.10
2023-01-20T11:36:01.424Z,26.93
2023-01-20T11:38:31.840Z,27.97
2023-01-20T11:40:59.357Z,28.40
2023-01-20T11:43:38.089Z,29.43
2023-01-20T11:46:32.391Z,27.47
2023-01-20T11:49:14.230Z,27.47
2023-01-20T11:51:55.634Z,29.23
2023-01-20T11:54:30.319Z,29.27
2023-01-20T11:57:04.647Z,26.60
2023-01-20T11:59:34.990Z,26.63
2023-01-20T12:02:04.817Z,26.37
2023-01-20T12:04:45.166Z,27.57
2023-01-20T12:07:17.625Z,26.67
2023-01-20T12:09:49.308Z,24.87
2023-01-20T12:12:33.890Z,25.47
2023-01-20T12:15:06.853Z,25.37
2023-01-20T12:17:42.696Z,26.47
2023-01-20T12:20:27.993Z,27.20
2023-01-20T12:23:07.495Z,24.17
2023-01-20T12:25:44.251Z,23.30
2023-01-20T12:28:21.670Z,22.83
2023-01-20T12:30:59.056Z,23.83
2023-01-20T12:33:30.374Z,23.40
2023-01-20T12:36:31.409Z,24.40
2023-01-20T12:39:23.173Z,23.80
2023-01-20T12:42:08.435Z,23.73
2023-01-20T12:44:44.594Z,24.67
2023-01-20T12:47:55.482Z,24.50
2023-01-20T12:50:32.094Z,24.93
2023-01-20T12:53:01.686Z,25.47
2023-01-20T12:55:37.712Z,25.60
2023-01-20T12:58:30.551Z,23.10
2023-01-20T13:01:31.705Z,24.60
2023-01-20T13:04:25.947Z,23.77
2023-01-20T13:07:10.419Z,24.83
2023-01-20T13:10:09.062Z,24.30
2023-01-20T13:13:03.298Z,23.40
2023-01-20T13:15:40.607Z,25.03
2023-01-20T13:18:22.552Z,25.67
2023-01-20T13:20:51.225Z,24.67
2023-01-20T13:23:31.136Z,26.13
2023-01-20T13:26:00.949Z,26.97
2023-01-20T13:28:30.167Z,28.13
2023-01-20T13:30:59.595Z,28.07
2023-01-20T13:33:34.001Z,26.10
2023-01-20T13:36:17.729Z,28.83
2023-01-20T13:38:46.326Z,26.37
2023-01-20T13:41:59.239Z,28.50
2023-01-20T13:44:37.599Z,28.47
2023-01-20T13:47:09.188Z,28.30
2023-01-20T13:49:45.384Z,28.97
2023-01-20T13:52:12.346Z,29.97
2023-01-20T13:54:44.813Z,29.90
2023-01-20T13:57:22.330Z,28.40
2023-01-20T13:59:49.943Z,30.40
2023-01-20T14:02:21.700Z,32.07
2023-01-20T14:04:50.355Z,30.43
2023-01-20T14:07:29.955Z,30.97
2023-01-20T14:09:59.658Z,31.40
2023-01-20T14:12:26.992Z,29.47
2023-01-20T14:14:54.766Z,32.37
2023-01-20T14:17:24.562Z,32.30
2023-01-20T14:19:56.117Z,31.53
2023-01-20T14:22:25.795Z,29.97
2023-01-20T14:24:55.519Z,30.30
2023-01-20T14:27:28.046Z,29.00
2023-01-20T14:30:00.417Z,29.23
2023-01-20T14:32:36.572Z,27.37
2023-01-20T14:35:29.941Z,28.23
2023-01-20T14:37:57.450Z,28.10
2023-01-20T14:40:35.292Z,28.73
2023-01-20T14:43:18.136Z,28.23
2023-01-20T14:45:48.413Z,29.50
2023-01-20T14:48:32.382Z,29.97
2023-01-20T14:51:02.691Z,31.20
2023-01-20T14:53:29.582Z,31.23
2023-01-20T14:56:05.203Z,31.10
2023-01-20T14:58:32.158Z,30.47
2023-01-20T15:01:05.784Z,30.67
2023-01-20T15:03:33.145Z,29.87
2023-01-20T15:06:06.633Z,28.73
2023-01-20T15:08:33.523Z,29.70
2023-01-20T15:11:16.471Z,30.03
2023-01-20T15:14:10.083Z,32.00
2023-01-20T15:16:37.575Z,32.70
2023-01-20T15:19:13.777Z,35.53
2023-01-20T15:21:49.673Z,35.23
2023-01-20T15:24:23.889Z,35.43
2023-01-20T15:26:53.711Z,37.83
2023-01-20T15:29:33.977Z,37.93
2023-01-20T15:32:12.227Z,39.30
2023-01-20T15:34:39.076Z,40.30
2023-01-20T15:37:15.581Z,39.50
2023-01-20T15:39:42.300Z,41.00
2023-01-20T15:42:13.194Z,47.17
2023-01-20T15:44:40.065Z,49.27
2023-01-20T15:47:25.896Z,47.83
2023-01-20T15:49:53.197Z,45.60
2023-01-20T15:52:20.279Z,45.63
2023-01-20T15:54:46.985Z,46.73
2023-01-20T15:57:16.800Z,46.43
2023-01-20T15:59:47.580Z,48.50
2023-01-20T16:02:23.440Z,48.17
2023-01-20T16:04:50.827Z,55.30
2023-01-20T16:07:20.136Z,53.13
2023-01-20T16:09:47.459Z,53.60
2023-01-20T16:12:16.456Z,50.70
2023-01-20T16:14:43.461Z,48.70
2023-01-20T16:17:19.326Z,49.10
2023-01-20T16:19:46.471Z,52.33
2023-01-20T16:22:14.538Z,50.63
2023-01-20T16:24:42.298Z,50.47
2023-01-20T16:27:21.574Z,53.03
2023-01-20T16:29:49.223Z,53.30
2023-01-20T16:32:18.711Z,51.50
2023-01-20T16:34:46.816Z,53.27
2023-01-20T16:37:14.610Z,47.47
2023-01-20T16:39:41.670Z,45.07
2023-01-20T16:42:13.378Z,42.53
2023-01-20T16:44:40.382Z,45.67
2023-01-20T16:47:08.364Z,47.17
2023-01-20T16:49:35.668Z,45.23
2023-01-20T16:52:03.234Z,47.00
2023-01-20T16:54:30.116Z,45.47
2023-01-20T16:56:57.154Z,44.97
2023-01-20T16:59:23.988Z,46.03
2023-01-20T17:01:51.036Z,46.30
2023-01-20T17:04:17.781Z,44.80
2023-01-20T17:06:44.990Z,45.53
2023-01-20T17:09:11.943Z,44.93
2023-01-20T17:11:40.436Z,43.97
2023-01-20T17:14:09.436Z,45.00
2023-01-20T17:16:37.646Z,41.87
2023-01-20T17:19:05.284Z,40.73
2023-01-20T17:21:37.109Z,43.30
2023-01-20T17:24:05.038Z,42.00
2023-01-20T17:26:32.763Z,44.67
2023-01-20T17:29:02.438Z,43.47
2023-01-20T17:31:33.079Z,41.07
2023-01-20T17:34:00.149Z,42.47
2023-01-20T17:36:27.233Z,42.40
2023-01-20T17:38:54.050Z,41.80
2023-01-20T17:41:21.086Z,41.43
2023-01-20T17:43:47.978Z,41.27
2023-01-20T17:46:17.167Z,42.37
2023-01-20T17:48:45.200Z,42.80
2023-01-20T17:51:21.201Z,43.33
2023-01-20T17:53:48.783Z,41.57
2023-01-20T17:56:17.137Z,46.50
2023-01-20T17:58:45.229Z,50.20
2023-01-20T18:01:18.195Z,53.63
2023-01-20T18:03:46.092Z,48.57
2023-01-20T18:06:15.587Z,48.60
2023-01-20T18:08:43.699Z,45.73
2023-01-20T18:11:19.597Z,45.47
2023-01-20T18:13:47.346Z,45.37
2023-01-20T18:16:16.578Z,43.43
2023-01-20T18:18:44.742Z,42.33
2023-01-20T18:21:17.529Z,42.90
2023-01-20T18:23:46.045Z,43.13
2023-01-20T18:26:15.638Z,40.63
2023-01-20T18:28:43.083Z,41.33
2023-01-20T18:31:16.371Z,41.27
2023-01-20T18:33:52.016Z,40.23
2023-01-20T18:36:28.700Z,38.87
2023-01-20T18:39:01.164Z,40.03
2023-01-20T18:41:31.192Z,41.23
2023-01-20T18:43:58.301Z,41.37
2023-01-20T18:46:27.264Z,44.13
2023-01-20T18:48:55.331Z,44.53
2023-01-20T18:51:25.285Z,47.67
2023-01-20T18:54:07.474Z,47.43
2023-01-20T18:56:34.734Z,49.83
2023-01-20T18:59:02.942Z,46.20
2023-01-20T19:01:33.806Z,45.33
2023-01-20T19:04:02.216Z,46.90
2023-01-20T19:06:31.583Z,46.30
2023-01-20T19:08:59.299Z,46.70
2023-01-20T19:11:29.275Z,44.27
2023-01-20T19:13:56.453Z,47.63
2023-01-20T19:16:26.865Z,46.43
2023-01-20T19:18:56.044Z,45.67
2023-01-20T19:21:24.935Z,44.53
2023-01-20T19:23:53.755Z,42.53
2023-01-20T19:26:22.669Z,42.93
2023-01-20T19:28:56.960Z,44.70
2023-01-20T19:31:24.242Z,43.77
2023-01-20T19:33:51.115Z,44.20
2023-01-20T19:36:19.066Z,43.20
2023-01-20T19:38:45.877Z,43.00
2023-01-20T19:41:15.857Z,43.50
2023-01-20T19:43:43.566Z,45.13
2023-01-20T19:46:13.573Z,44.03
2023-01-20T19:48:40.930Z,43.83
2023-01-20T19:51:10.938Z,42.80
2023-01-20T19:53:38.776Z,39.07
2023-01-20T19:56:09.766Z,41.17
2023-01-20T19:58:37.677Z,40.93
2023-01-20T20:01:22.454Z,40.13
2023-01-20T20:03:51.172Z,40.60
2023-01-20T20:06:30.024Z,39.50
2023-01-20T20:09:02.030Z,39.27
2023-01-20T20:11:30.139Z,41.93
2023-01-20T20:13:58.410Z,39.30
2023-01-20T20:16:27.440Z,40.37
2023-01-20T20:18:55.042Z,40.07
2023-01-20T20:21:23.106Z,38.93
2023-01-20T20:23:54.101Z,38.03
2023-01-20T20:26:22.961Z,38.50
2023-01-20T20:28:52.888Z,39.03
2023-01-20T20:31:20.401Z,37.80
2023-01-20T20:33:47.425Z,37.27
2023-01-20T20:36:15.281Z,37.30
2023-01-20T20:38:42.167Z,38.60
2023-01-20T20:41:09.594Z,38.37
2023-01-20T20:43:38.246Z,38.07
2023-01-20T20:46:06.798Z,39.67
2023-01-20T20:48:35.290Z,38.47
2023-01-20T20:51:15.032Z,37.50
2023-01-20T20:53:44.585Z,37.53
2023-01-20T20:56:14.247Z,38.47
2023-01-20T20:58:59.487Z,38.60
2023-01-20T21:01:29.411Z,37.90
2023-01-20T21:03:57.793Z,38.40
2023-01-20T21:06:25.943Z,38.97
2023-01-20T21:08:53.067Z,39.20
2023-01-20T21:11:20.562Z,40.43
2023-01-20T21:13:49.294Z,39.53
2023-01-20T21:16:20.786Z,37.17
2023-01-20T21:18:48.446Z,36.27
2023-01-20T21:21:21.966Z,37.57
2023-01-20T21:23:54.878Z,36.40
2023-01-20T21:26:23.290Z,36.70
2023-01-20T21:28:50.360Z,37.53
2023-01-20T21:31:23.338Z,34.93
2023-01-20T21:33:55.415Z,36.53
2023-01-20T21:36:23.187Z,36.87
2023-01-20T21:38:50.836Z,35.47
2023-01-20T21:41:18.838Z,36.20
2023-01-20T21:44:05.552Z,34.40
2023-01-20T21:46:41.721Z,34.43
2023-01-20T21:49:27.664Z,35.50
2023-01-20T21:52:14.647Z,31.87
2023-01-20T21:54:41.896Z,33.37
2023-01-20T21:57:09.130Z,33.80
2023-01-20T21:59:36.110Z,33.77
2023-01-20T22:02:03.360Z,35.10
2023-01-20T22:04:30.292Z,33.67
2023-01-20T22:06:57.405Z,33.47
2023-01-20T22:09:24.407Z,33.67
2023-01-20T22:11:51.522Z,32.30
2023-01-20T22:14:18.333Z,33.33
2023-01-20T22:16:45.425Z,35.13
2023-01-20T22:19:13.548Z,32.77
2023-01-20T22:21:41.007Z,30.20
2023-01-20T22:24:08.294Z,31.23
2023-01-20T22:26:35.355Z,28.87
2023-01-20T22:29:02.200Z,29.20
2023-01-20T22:31:30.210Z,29.63
2023-01-20T22:33:59.242Z,29.47
2023-01-20T22:36:26.376Z,29.40
2023-01-20T22:38:53.521Z,29.73
2023-01-20T22:41:21.801Z,29.77
2023-01-20T22:43:50.995Z,28.13
2023-01-20T22:46:21.017Z,28.23
2023-01-20T22:48:47.889Z,27.37
2023-01-20T22:51:16.617Z,28.30
2023-01-20T22:53:44.914Z,26.90
2023-01-20T22:56:17.349Z,27.00
2023-01-20T22:58:44.877Z,27.30
2023-01-20T23:01:33.293Z,28.80
2023-01-20T23:04:02.671Z,27.27
2023-01-20T23:06:34.800Z,25.97
2023-01-20T23:09:07.816Z,24.87
2023-01-20T23:11:38.110Z,25.67
2023-01-20T23:14:05.589Z,25.00
2023-01-20T23:16:32.787Z,26.87
2023-01-20T23:18:59.661Z,25.67
2023-01-20T23:21:26.727Z,25.50
2023-01-20T23:23:56.323Z,25.57
2023-01-20T23:26:29.239Z,24.57
2023-01-20T23:28:56.809Z,25.60
2023-01-20T23:31:25.228Z,24.40
2023-01-20T23:33:53.972Z,22.87
2023-01-20T23:36:23.686Z,22.33
2023-01-20T23:38:52.572Z,21.17
2023-01-20T23:41:20.025Z,20.73
2023-01-20T23:43:46.996Z,21.93
2023-01-20T23:46:14.440Z,20.57
2023-01-20T23:48:41.287Z,21.23
2023-01-20T23:51:08.512Z,19.60
2023-01-20T23:53:37.965Z,20.33
2023-01-20T23:56:07.721Z,19.67
2023-01-20T23:58:34.538Z,20.27
